createdAt,value
2024-03-05T00:01:15.522Z,5.47
2024-03-05T00:03:44.290Z,5.30
2024-03-05T00:06:12.462Z,6.17
2024-03-05T00:08:40.573Z,5.73
2024-03-05T00:11:08.916Z,6.30
2024-03-05T00:13:38.541Z,5.30
2024-03-05T00:16:07.087Z,5.80
2024-03-05T00:18:35.277Z,5.47
2024-03-05T00:21:03.378Z,4.70
2024-03-05T00:23:31.446Z,6.30
2024-03-05T00:25:59.541Z,6.53
2024-03-05T00:28:27.583Z,6.40
2024-03-05T00:30:56.980Z,6.63
2024-03-05T00:33:25.905Z,5.07
2024-03-05T00:35:54.318Z,6.73
2024-03-05T00:38:28.848Z,5.87
2024-03-05T00:41:02.066Z,7.30
2024-03-05T00:43:30.207Z,7.13
2024-03-05T00:45:59.740Z,6.90
2024-03-05T00:48:29.044Z,6.13
2024-03-05T00:50:57.101Z,6.30
2024-03-05T00:53:25.146Z,5.00
2024-03-05T00:55:53.193Z,6.73
2024-03-05T00:58:21.902Z,7.37
2024-03-05T01:00:50.171Z,6.27
2024-03-05T01:03:20.033Z,5.57
2024-03-05T01:05:48.238Z,5.93
2024-03-05T01:08:16.319Z,5.80
2024-03-05T01:10:46.753Z,6.13
2024-03-05T01:13:15.612Z,7.60
2024-03-05T01:15:43.794Z,6.27
2024-03-05T01:18:11.958Z,7.67
2024-03-05T01:20:42.917Z,7.03
2024-03-05T01:23:11.675Z,5.70
2024-03-05T01:25:39.912Z,7.20
2024-03-05T01:28:08.844Z,6.70
2024-03-05T01:30:37.993Z,6.23
2024-03-05T01:33:10.585Z,6.50
2024-03-05T01:35:39.419Z,7.23
2024-03-05T01:38:08.923Z,6.57
2024-03-05T01:40:37.004Z,6.17
2024-03-05T01:43:05.414Z,6.40
2024-03-05T01:45:33.469Z,6.93
2024-03-05T01:48:01.792Z,6.13
2024-03-05T01:50:30.494Z,6.03
2024-03-05T01:52:59.299Z,6.27
2024-03-05T01:55:28.797Z,6.40
2024-03-05T01:57:58.249Z,6.73
2024-03-05T02:00:27.291Z,6.67
2024-03-05T02:02:56.832Z,5.87
2024-03-05T02:05:25.137Z,6.30
2024-03-05T02:07:55.398Z,6.70
2024-03-05T02:10:23.561Z,6.57
2024-03-05T02:12:53.359Z,5.97
2024-03-05T02:15:22.185Z,5.87
2024-03-05T02:17:50.321Z,6.90
2024-03-05T02:20:18.518Z,5.60
2024-03-05T02:22:48.078Z,6.27
2024-03-05T02:25:18.666Z,5.90
2024-03-05T02:27:47.798Z,7.20
2024-03-05T02:30:16.739Z,5.87
2024-03-05T02:32:45.300Z,5.77
2024-03-05T02:35:13.455Z,6.80
2024-03-05T02:37:42.620Z,5.33
2024-03-05T02:40:14.599Z,5.27
2024-03-05T02:42:43.306Z,6.43
2024-03-05T02:45:14.167Z,5.20
2024-03-05T02:47:42.685Z,5.57
2024-03-05T02:50:11.922Z,6.30
2024-03-05T02:52:41.148Z,5.43
2024-03-05T02:55:11.006Z,6.20
2024-03-05T02:57:42.315Z,6.63
2024-03-05T03:00:14.714Z,5.27
2024-03-05T03:02:42.865Z,6.47
2024-03-05T03:05:11.312Z,6.30
2024-03-05T03:07:39.406Z,5.23
2024-03-05T03:10:07.909Z,5.50
2024-03-05T03:12:35.927Z,5.90
2024-03-05T03:15:08.230Z,5.93
2024-03-05T03:17:36.556Z,5.93
2024-03-05T03:20:05.138Z,6.03
2024-03-05T03:22:33.588Z,7.20
2024-03-05T03:25:01.612Z,7.33
2024-03-05T03:27:31.143Z,5.97
2024-03-05T03:29:59.831Z,5.50
2024-03-05T03:32:29.224Z,6.63
2024-03-05T03:34:57.391Z,5.73
2024-03-05T03:37:25.509Z,6.97
2024-03-05T03:39:53.605Z,6.20
2024-03-05T03:42:21.575Z,5.87
2024-03-05T03:44:49.613Z,6.07
2024-03-05T03:47:17.673Z,5.33
2024-03-05T03:49:49.384Z,6.60
2024-03-05T03:52:17.565Z,5.77
2024-03-05T03:54:45.621Z,6.30
2024-03-05T03:57:14.512Z,5.77
2024-03-05T03:59:42.821Z,5.57
2024-03-05T04:02:10.940Z,6.30
2024-03-05T04:04:39.077Z,5.70
2024-03-05T04:07:08.597Z,6.73
2024-03-05T04:09:36.619Z,6.07
2024-03-05T04:12:04.787Z,6.13
2024-03-05T04:14:32.758Z,6.00
2024-03-05T04:17:00.872Z,6.70
2024-03-05T04:19:29.627Z,6.50
2024-03-05T04:21:57.739Z,5.43
2024-03-05T04:24:27.237Z,6.80
2024-03-05T04:27:03.929Z,6.57
2024-03-05T04:29:32.065Z,5.67
2024-03-05T04:32:09.776Z,7.60
2024-03-05T04:34:40.812Z,5.40
2024-03-05T04:37:12.033Z,6.53
2024-03-05T04:39:44.008Z,5.50
2024-03-05T04:42:12.999Z,5.80
2024-03-05T04:44:43.764Z,5.97
2024-03-05T04:47:11.855Z,5.87
2024-03-05T04:49:39.973Z,5.83
2024-03-05T04:52:08.388Z,7.50
2024-03-05T04:54:36.484Z,5.00
2024-03-05T04:57:06.697Z,6.10
2024-03-05T04:59:34.998Z,5.83
2024-03-05T05:02:03.347Z,7.07
2024-03-05T05:04:31.679Z,6.30
2024-03-05T05:06:59.756Z,6.10
2024-03-05T05:09:27.795Z,4.93
2024-03-05T05:11:55.989Z,5.53
2024-03-05T05:14:25.402Z,6.87
2024-03-05T05:16:53.700Z,6.37
2024-03-05T05:19:21.860Z,5.00
2024-03-05T05:21:50.031Z,6.23
2024-03-05T05:24:18.067Z,5.53
2024-03-05T05:26:46.073Z,6.40
2024-03-05T05:29:20.583Z,6.10
2024-03-05T05:31:56.979Z,6.37
2024-03-05T05:34:25.000Z,6.87
2024-03-05T05:36:53.001Z,5.73
2024-03-05T05:39:25.440Z,5.63
2024-03-05T05:41:54.416Z,5.10
2024-03-05T05:44:22.667Z,6.00
2024-03-05T05:46:50.947Z,4.80
2024-03-05T05:49:22.063Z,5.97
2024-03-05T05:51:50.454Z,6.13
2024-03-05T05:54:22.573Z,6.00
2024-03-05T05:56:51.447Z,5.23
2024-03-05T05:59:20.005Z,5.90
2024-03-05T06:01:48.748Z,6.50
2024-03-05T06:04:17.774Z,6.33
2024-03-05T06:06:47.132Z,5.70
2024-03-05T06:09:23.198Z,5.70
2024-03-05T06:11:51.364Z,5.80
2024-03-05T06:14:20.301Z,5.83
2024-03-05T06:16:48.383Z,5.80
2024-03-05T06:19:16.493Z,6.33
2024-03-05T06:21:45.231Z,6.67
2024-03-05T06:24:14.835Z,5.33
2024-03-05T06:26:42.819Z,6.10
2024-03-05T06:29:12.964Z,6.17
2024-03-05T06:31:40.996Z,6.90
2024-03-05T06:34:12.209Z,6.63
2024-03-05T06:36:40.405Z,6.50
2024-03-05T06:39:10.175Z,7.17
2024-03-05T06:41:39.547Z,6.07
2024-03-05T06:44:12.300Z,6.93
2024-03-05T06:46:42.644Z,6.03
2024-03-05T06:49:16.162Z,6.03
2024-03-05T06:51:54.288Z,6.30
2024-03-05T06:54:40.243Z,5.80
2024-03-05T06:57:09.640Z,7.03
2024-03-05T06:59:37.836Z,6.03
2024-03-05T07:02:06.956Z,6.80
2024-03-05T07:04:36.280Z,6.33
2024-03-05T07:07:04.429Z,6.63
2024-03-05T07:09:33.120Z,6.97
2024-03-05T07:12:02.339Z,6.70
2024-03-05T07:14:33.209Z,6.90
2024-03-05T07:17:01.337Z,6.30
2024-03-05T07:19:29.488Z,6.40
2024-03-05T07:21:57.550Z,6.43
2024-03-05T07:24:25.527Z,7.40
2024-03-05T07:27:01.147Z,6.83
2024-03-05T07:29:37.647Z,6.90
2024-03-05T07:32:06.496Z,6.83
2024-03-05T07:34:36.262Z,7.20
2024-03-05T07:37:06.926Z,7.00
2024-03-05T07:39:34.947Z,7.60
2024-03-05T07:42:03.532Z,6.03
2024-03-05T07:44:32.876Z,6.60
2024-03-05T07:47:02.727Z,7.87
2024-03-05T07:49:30.841Z,6.23
2024-03-05T07:51:58.825Z,7.10
2024-03-05T07:54:26.823Z,5.80
2024-03-05T07:56:55.009Z,6.80
2024-03-05T07:59:23.067Z,6.00
2024-03-05T08:01:51.047Z,6.10
2024-03-05T08:04:20.511Z,5.80
2024-03-05T08:06:48.501Z,6.93
2024-03-05T08:09:16.626Z,7.63
2024-03-05T08:11:44.659Z,6.20
2024-03-05T08:14:12.779Z,5.93
2024-03-05T08:16:41.182Z,6.67
2024-03-05T08:19:09.581Z,6.47
2024-03-05T08:21:39.054Z,7.60
2024-03-05T08:24:09.473Z,6.53
2024-03-05T08:26:37.491Z,7.00
2024-03-05T08:29:05.623Z,5.97
2024-03-05T08:31:33.757Z,6.67
2024-03-05T08:34:05.320Z,5.23
2024-03-05T08:36:37.585Z,6.03
2024-03-05T08:39:18.628Z,5.40
2024-03-05T08:41:48.222Z,6.97
2024-03-05T08:44:17.734Z,6.50
2024-03-05T08:46:45.811Z,5.73
2024-03-05T08:49:13.818Z,7.00
2024-03-05T08:51:41.967Z,5.40
2024-03-05T08:54:12.651Z,5.77
2024-03-05T08:56:41.900Z,6.33
2024-03-05T08:59:10.364Z,5.53
2024-03-05T09:01:38.497Z,5.70
2024-03-05T09:04:07.388Z,5.33
2024-03-05T09:06:35.494Z,5.57
2024-03-05T09:09:03.541Z,5.50
2024-03-05T09:11:33.001Z,5.67
2024-03-05T09:14:01.137Z,5.60
2024-03-05T09:16:29.620Z,6.37
2024-03-05T09:18:57.664Z,6.30
2024-03-05T09:21:25.832Z,6.33
2024-03-05T09:23:53.827Z,5.20
2024-03-05T09:26:21.890Z,5.53
2024-03-05T09:28:51.327Z,5.90
2024-03-05T09:31:20.069Z,5.07
2024-03-05T09:33:48.158Z,4.60
2024-03-05T09:36:16.189Z,5.27
2024-03-05T09:38:44.321Z,4.67
2024-03-05T09:41:14.018Z,5.60
2024-03-05T09:43:43.188Z,4.93
2024-03-05T09:46:15.783Z,5.33
2024-03-05T09:48:43.811Z,5.27
2024-03-05T09:51:13.755Z,4.77
2024-03-05T09:53:40.787Z,5.67
2024-03-05T09:56:09.469Z,5.10
2024-03-05T09:58:40.352Z,4.73
2024-03-05T10:01:10.748Z,4.80
2024-03-05T10:03:40.696Z,4.53
2024-03-05T10:06:09.518Z,4.20
2024-03-05T10:08:37.560Z,5.40
2024-03-05T10:11:07.680Z,5.20
2024-03-05T10:13:37.965Z,4.10
2024-03-05T10:16:19.392Z,4.77
2024-03-05T10:18:51.029Z,4.00
2024-03-05T10:21:20.350Z,4.30
2024-03-05T10:23:49.658Z,4.23
2024-03-05T10:26:25.848Z,4.50
2024-03-05T10:28:54.446Z,3.90
2024-03-05T10:31:24.600Z,3.90
2024-03-05T10:33:55.456Z,3.87
2024-03-05T10:36:27.518Z,4.00
2024-03-05T10:38:55.567Z,3.60
2024-03-05T10:41:26.918Z,3.97
2024-03-05T10:43:58.499Z,3.30
2024-03-05T10:46:26.586Z,4.07
2024-03-05T10:48:56.217Z,3.57
2024-03-05T10:51:27.755Z,3.70
2024-03-05T10:53:56.046Z,4.03
2024-03-05T10:56:29.410Z,4.23
2024-03-05T10:59:24.103Z,3.97
2024-03-05T11:01:54.669Z,3.53
2024-03-05T11:04:25.022Z,4.13
2024-03-05T11:06:56.847Z,4.03
2024-03-05T11:09:25.354Z,4.17
2024-03-05T11:11:59.352Z,4.97
2024-03-05T11:14:28.420Z,4.23
2024-03-05T11:16:59.878Z,3.67
2024-03-05T11:19:29.408Z,4.53
2024-03-05T11:21:57.951Z,4.57
2024-03-05T11:24:25.977Z,4.83
2024-03-05T11:27:02.951Z,5.10
2024-03-05T11:29:42.746Z,3.73
2024-03-05T11:32:12.749Z,4.63
2024-03-05T11:34:49.012Z,4.60
2024-03-05T11:37:18.140Z,5.20
2024-03-05T11:39:46.395Z,4.40
2024-03-05T11:42:20.892Z,4.73
2024-03-05T11:44:56.013Z,3.90
2024-03-05T11:47:25.390Z,4.30
2024-03-05T11:49:54.907Z,4.20
2024-03-05T11:52:23.507Z,3.83
2024-03-05T11:55:00.248Z,4.13
2024-03-05T11:57:28.842Z,4.70
2024-03-05T11:59:56.934Z,5.60
2024-03-05T12:02:25.390Z,4.70
2024-03-05T12:04:55.069Z,5.07
2024-03-05T12:07:23.877Z,5.13
2024-03-05T12:09:57.336Z,4.40
2024-03-05T12:12:26.046Z,5.00
2024-03-05T12:14:55.729Z,3.83
2024-03-05T12:17:25.272Z,5.07
2024-03-05T12:20:09.171Z,4.77
2024-03-05T12:22:38.970Z,4.40
2024-03-05T12:25:09.432Z,4.80
2024-03-05T12:27:38.661Z,4.80
2024-03-05T12:30:08.872Z,4.13
2024-03-05T12:32:37.965Z,5.33
2024-03-05T12:35:08.205Z,4.40
2024-03-05T12:37:37.258Z,3.70
2024-03-05T12:40:08.835Z,4.50
2024-03-05T12:42:37.129Z,4.87
2024-03-05T12:45:09.389Z,4.30
2024-03-05T12:47:39.460Z,4.27
2024-03-05T12:50:10.812Z,4.80
2024-03-05T12:52:38.986Z,3.70
2024-03-05T12:55:08.597Z,3.60
2024-03-05T12:57:36.888Z,3.57
2024-03-05T13:00:11.751Z,4.10
2024-03-05T13:02:40.175Z,3.63
2024-03-05T13:05:10.394Z,3.67
2024-03-05T13:07:39.334Z,2.70
2024-03-05T13:10:12.614Z,2.70
2024-03-05T13:12:43.080Z,3.53
2024-03-05T13:15:12.142Z,3.83
2024-03-05T13:17:40.259Z,3.30
2024-03-05T13:20:19.717Z,3.80
2024-03-05T13:22:48.208Z,4.23
2024-03-05T13:25:16.813Z,3.43
2024-03-05T13:27:44.993Z,3.20
2024-03-05T13:30:16.002Z,3.50
2024-03-05T13:32:44.499Z,3.23
2024-03-05T13:35:15.342Z,4.37
2024-03-05T13:37:43.991Z,3.53
2024-03-05T13:40:14.086Z,2.93
2024-03-05T13:42:42.230Z,3.20
2024-03-05T13:45:13.650Z,3.17
2024-03-05T13:47:42.100Z,3.40
2024-03-05T13:50:11.854Z,3.80
2024-03-05T13:52:43.530Z,3.17
2024-03-05T13:55:13.008Z,4.03
2024-03-05T13:57:41.572Z,3.37
2024-03-05T14:00:15.050Z,3.27
2024-03-05T14:02:43.110Z,3.20
2024-03-05T14:05:12.413Z,2.93
2024-03-05T14:07:41.907Z,3.27
2024-03-05T14:10:12.455Z,3.80
2024-03-05T14:12:41.785Z,3.30
2024-03-05T14:15:21.855Z,3.53
2024-03-05T14:17:51.337Z,3.77
2024-03-05T14:20:28.941Z,3.10
2024-03-05T14:23:00.466Z,2.97
2024-03-05T14:25:28.802Z,3.10
2024-03-05T14:27:56.838Z,3.40
2024-03-05T14:30:27.047Z,3.40
2024-03-05T14:32:59.072Z,3.10
2024-03-05T14:35:27.105Z,3.20
2024-03-05T14:37:55.689Z,3.40
2024-03-05T14:40:25.899Z,3.70
2024-03-05T14:42:53.971Z,3.60
2024-03-05T14:45:23.575Z,2.67
2024-03-05T14:47:51.639Z,3.50
2024-03-05T14:50:20.573Z,3.27
2024-03-05T14:52:48.698Z,3.27
2024-03-05T14:55:16.882Z,3.13
2024-03-05T14:57:46.807Z,3.77
2024-03-05T15:00:17.150Z,4.40
2024-03-05T15:02:47.372Z,3.10
2024-03-05T15:05:15.887Z,3.00
2024-03-05T15:07:45.020Z,3.40
2024-03-05T15:10:14.508Z,3.50
2024-03-05T15:12:44.832Z,2.77
2024-03-05T15:15:14.790Z,3.10
2024-03-05T15:17:42.994Z,3.27
2024-03-05T15:20:12.891Z,3.57
2024-03-05T15:22:41.669Z,2.90
2024-03-05T15:25:11.122Z,3.10
2024-03-05T15:27:40.493Z,3.57
2024-03-05T15:30:14.709Z,3.57
2024-03-05T15:32:48.713Z,3.27
2024-03-05T15:35:18.030Z,3.13
2024-03-05T15:37:47.095Z,2.90
2024-03-05T15:40:19.681Z,2.90
2024-03-05T15:42:48.680Z,3.63
2024-03-05T15:45:16.662Z,3.80
2024-03-05T15:47:45.885Z,3.20
2024-03-05T15:50:19.072Z,3.20
2024-03-05T15:52:48.802Z,3.77
2024-03-05T15:55:18.365Z,3.30
2024-03-05T15:57:58.199Z,3.10
2024-03-05T16:00:36.413Z,3.00
2024-03-05T16:03:06.644Z,3.57
2024-03-05T16:05:43.450Z,3.80
2024-03-05T16:08:22.165Z,2.83
2024-03-05T16:10:51.916Z,3.83
2024-03-05T16:13:19.992Z,3.50
2024-03-05T16:15:48.230Z,3.60
2024-03-05T16:18:17.199Z,4.10
2024-03-05T16:20:47.440Z,4.07
2024-03-05T16:23:15.762Z,3.77
2024-03-05T16:25:43.862Z,3.80
2024-03-05T16:28:12.434Z,3.10
2024-03-05T16:30:40.939Z,3.90
2024-03-05T16:33:09.068Z,4.10
2024-03-05T16:35:42.269Z,3.60
2024-03-05T16:38:15.219Z,3.93
2024-03-05T16:40:43.697Z,3.20
2024-03-05T16:45:41.317Z,5.33
2024-03-05T16:48:11.042Z,3.50
2024-03-05T16:50:40.321Z,4.23
2024-03-05T16:53:09.942Z,3.40
2024-03-05T16:55:40.691Z,4.07
2024-03-05T16:58:12.658Z,5.10
2024-03-05T17:00:48.809Z,3.47
2024-03-05T17:03:19.931Z,4.10
2024-03-05T17:05:51.861Z,4.40
2024-03-05T17:08:22.078Z,3.40
2024-03-05T17:10:52.313Z,4.10
2024-03-05T17:13:23.027Z,4.23
2024-03-05T17:15:56.352Z,4.90
2024-03-05T17:18:25.382Z,4.37
2024-03-05T17:20:54.994Z,4.70
2024-03-05T17:23:26.685Z,4.30
2024-03-05T17:25:57.864Z,4.20
2024-03-05T17:28:27.602Z,4.30
2024-03-05T17:30:57.085Z,4.07
2024-03-05T17:33:25.791Z,3.47
2024-03-05T17:35:56.494Z,3.80
2024-03-05T17:38:26.292Z,3.03
2024-03-05T17:40:56.779Z,3.57
2024-03-05T17:43:25.051Z,3.57
2024-03-05T17:45:54.227Z,3.27
2024-03-05T17:48:22.714Z,3.23
2024-03-05T17:50:50.729Z,3.23
2024-03-05T17:53:18.920Z,3.43
2024-03-05T17:55:47.157Z,3.13
2024-03-05T17:58:17.575Z,2.70
2024-03-05T18:00:47.002Z,2.97
2024-03-05T18:03:16.367Z,3.43
2024-03-05T18:05:46.285Z,3.20
2024-03-05T18:08:14.812Z,3.13
2024-03-05T18:10:43.544Z,3.00
2024-03-05T18:13:11.916Z,3.27
2024-03-05T18:15:41.457Z,3.00
2024-03-05T18:18:09.555Z,2.80
2024-03-05T18:20:37.613Z,3.10
2024-03-05T18:23:07.183Z,2.80
2024-03-05T18:25:36.699Z,3.27
2024-03-05T18:28:06.684Z,3.63
2024-03-05T18:30:36.786Z,2.73
2024-03-05T18:33:08.886Z,3.23
2024-03-05T18:35:38.872Z,3.43
2024-03-05T18:38:20.146Z,2.77
2024-03-05T18:40:57.899Z,2.47
2024-03-05T18:43:28.445Z,3.13
2024-03-05T18:45:57.261Z,3.70
2024-03-05T18:48:26.778Z,2.77
2024-03-05T18:50:54.819Z,2.30
2024-03-05T18:53:31.900Z,3.87
2024-03-05T18:56:07.942Z,2.40
2024-03-05T18:58:36.267Z,3.00
2024-03-05T19:01:04.368Z,3.80
2024-03-05T19:03:33.844Z,3.00
2024-03-05T19:06:01.834Z,3.40
2024-03-05T19:08:30.381Z,3.50
2024-03-05T19:10:58.497Z,2.63
2024-03-05T19:13:26.630Z,2.53
2024-03-05T19:15:54.756Z,3.63
2024-03-05T19:18:22.840Z,2.80
2024-03-05T19:20:52.324Z,3.20
2024-03-05T19:23:20.578Z,3.13
2024-03-05T19:25:48.749Z,2.80
2024-03-05T19:28:16.872Z,3.20
2024-03-05T19:30:45.001Z,2.60
2024-03-05T19:33:13.135Z,2.63
2024-03-05T19:35:41.418Z,3.07
2024-03-05T19:38:11.094Z,2.73
2024-03-05T19:40:39.193Z,3.93
2024-03-05T19:43:10.127Z,3.23
2024-03-05T19:45:38.119Z,2.10
2024-03-05T19:48:07.035Z,2.67
2024-03-05T19:50:36.213Z,2.23
2024-03-05T19:53:04.740Z,2.10
2024-03-05T19:55:34.863Z,2.70
2024-03-05T19:58:03.178Z,3.20
2024-03-05T20:00:31.307Z,2.70
2024-03-05T20:03:00.348Z,2.83
2024-03-05T20:05:28.657Z,2.80
2024-03-05T20:07:56.813Z,2.77
2024-03-05T20:10:26.353Z,2.47
2024-03-05T20:12:57.516Z,2.53
2024-03-05T20:15:25.883Z,3.13
2024-03-05T20:17:55.442Z,2.97
2024-03-05T20:20:23.932Z,2.27
2024-03-05T20:22:52.237Z,3.27
2024-03-05T20:25:22.673Z,3.37
2024-03-05T20:27:52.336Z,3.47
2024-03-05T20:30:23.668Z,3.07
2024-03-05T20:32:52.628Z,2.73
2024-03-05T20:35:21.358Z,2.57
2024-03-05T20:37:51.916Z,3.03
2024-03-05T20:40:21.987Z,3.03
2024-03-05T20:42:50.153Z,2.37
2024-03-05T20:45:19.696Z,2.20
2024-03-05T20:47:49.816Z,2.77
2024-03-05T20:50:19.165Z,2.47
2024-03-05T20:52:47.389Z,1.83
2024-03-05T20:55:15.631Z,2.30
2024-03-05T20:57:47.008Z,2.47
2024-03-05T21:00:19.942Z,2.43
2024-03-05T21:02:52.910Z,2.60
2024-03-05T21:05:21.114Z,2.97
2024-03-05T21:07:54.919Z,2.97
2024-03-05T21:10:23.509Z,2.33
2024-03-05T21:12:51.841Z,2.50
2024-03-05T21:15:21.372Z,2.30
2024-03-05T21:17:51.908Z,2.53
2024-03-05T21:20:20.647Z,2.33
2024-03-05T21:22:49.525Z,2.80
2024-03-05T21:25:18.920Z,1.90
2024-03-05T21:27:47.049Z,2.27
2024-03-05T21:30:15.286Z,2.37
2024-03-05T21:32:43.831Z,2.40
2024-03-05T21:35:13.422Z,2.07
2024-03-05T21:37:42.583Z,2.50
2024-03-05T21:40:14.340Z,2.30
2024-03-05T21:42:45.382Z,2.67
2024-03-05T21:45:16.168Z,2.40
2024-03-05T21:47:45.883Z,2.40
2024-03-05T21:50:15.622Z,2.17
2024-03-05T21:52:46.357Z,2.73
2024-03-05T21:55:16.582Z,4.67
2024-03-05T21:57:44.973Z,4.10
2024-03-05T22:00:15.433Z,2.87
2024-03-05T22:02:44.213Z,3.10
2024-03-05T22:05:13.589Z,2.60
2024-03-05T22:07:43.244Z,2.73
2024-03-05T22:10:12.994Z,2.87
2024-03-05T22:12:41.805Z,2.80
2024-03-05T22:15:11.086Z,2.90
2024-03-05T22:17:39.819Z,2.90
2024-03-05T22:20:10.307Z,2.50
2024-03-05T22:22:40.070Z,2.47
2024-03-05T22:25:10.198Z,1.97
2024-03-05T22:27:38.265Z,2.40
2024-03-05T22:30:08.757Z,2.70
2024-03-05T22:32:37.501Z,2.80
2024-03-05T22:35:11.360Z,2.30
2024-03-05T22:37:41.100Z,2.83
2024-03-05T22:40:13.253Z,2.93
2024-03-05T22:42:41.346Z,2.30
2024-03-05T22:45:11.409Z,2.60
2024-03-05T22:47:39.940Z,2.60
2024-03-05T22:50:10.499Z,3.07
2024-03-05T22:52:38.876Z,2.70
2024-03-05T22:55:07.479Z,1.90
2024-03-05T22:57:37.229Z,2.33
2024-03-05T23:00:14.106Z,2.33
2024-03-05T23:02:42.331Z,2.53
2024-03-05T23:05:11.444Z,2.53
2024-03-05T23:07:39.690Z,3.20
2024-03-05T23:10:10.028Z,3.00
2024-03-05T23:12:39.413Z,2.50
2024-03-05T23:15:08.056Z,3.23
2024-03-05T23:17:36.082Z,2.50
2024-03-05T23:20:09.201Z,2.70
2024-03-05T23:22:37.399Z,2.90
2024-03-05T23:25:07.479Z,3.20
2024-03-05T23:27:35.711Z,2.77
2024-03-05T23:30:07.369Z,2.77
2024-03-05T23:32:35.438Z,3.30
2024-03-05T23:35:04.321Z,2.40
2024-03-05T23:37:32.373Z,3.10
2024-03-05T23:40:00.479Z,2.70
2024-03-05T23:42:28.818Z,3.30
2024-03-05T23:44:56.845Z,2.80
2024-03-05T23:47:26.475Z,2.37
2024-03-05T23:49:54.948Z,3.33
2024-03-05T23:52:23.112Z,2.90
2024-03-05T23:54:51.095Z,2.90
2024-03-05T23:57:19.171Z,2.80
2024-03-05T23:59:47.223Z,2.30
